sensor_id;sensor_type;location;lat;lon;timestamp;pressure;altitude;pressure_sealevel;temperature;humidity
84835;BME280;75078;42.636;23.198;2024-03-22T00:01:53;92131.00;;;3.31;55.96
84835;BME280;75078;42.636;23.198;2024-03-22T00:04:19;92130.25;;;3.30;55.64
84835;BME280;75078;42.636;23.198;2024-03-22T00:06:46;92126.81;;;3.26;54.64
84835;BME280;75078;42.636;23.198;2024-03-22T00:09:12;92128.16;;;3.24;55.79
84835;BME280;75078;42.636;23.198;2024-03-22T00:11:42;92129.22;;;3.23;56.86
84835;BME280;75078;42.636;23.198;2024-03-22T00:14:08;92126.81;;;3.18;57.92
84835;BME280;75078;42.636;23.198;2024-03-22T00:16:33;92128.31;;;3.19;56.86
84835;BME280;75078;42.636;23.198;2024-03-22T00:18:59;92122.63;;;3.22;57.31
84835;BME280;75078;42.636;23.198;2024-03-22T00:21:24;92122.03;;;3.25;56.33
84835;BME280;75078;42.636;23.198;2024-03-22T00:23:50;92115.59;;;3.27;57.10
84835;BME280;75078;42.636;23.198;2024-03-22T00:26:16;92125.03;;;3.27;57.16
84835;BME280;75078;42.636;23.198;2024-03-22T00:28:41;92115.88;;;3.26;57.59
84835;BME280;75078;42.636;23.198;2024-03-22T00:31:07;92115.16;;;3.25;57.11
84835;BME280;75078;42.636;23.198;2024-03-22T00:33:33;92117.53;;;3.22;57.24
84835;BME280;75078;42.636;23.198;2024-03-22T00:35:58;92123.53;;;3.17;56.80
84835;BME280;75078;42.636;23.198;2024-03-22T00:38:23;92117.84;;;3.12;57.04
84835;BME280;75078;42.636;23.198;2024-03-22T00:40:49;92126.38;;;3.07;57.26
84835;BME280;75078;42.636;23.198;2024-03-22T00:43:14;92114.22;;;2.96;58.13
84835;BME280;75078;42.636;23.198;2024-03-22T00:45:39;92119.31;;;2.87;57.23
84835;BME280;75078;42.636;23.198;2024-03-22T00:48:05;92118.81;;;2.76;58.65
84835;BME280;75078;42.636;23.198;2024-03-22T00:50:30;92119.88;;;2.75;59.74
84835;BME280;75078;42.636;23.198;2024-03-22T00:52:56;92124.94;;;2.75;60.36
84835;BME280;75078;42.636;23.198;2024-03-22T00:55:22;92119.41;;;2.73;60.03
84835;BME280;75078;42.636;23.198;2024-03-22T00:57:47;92121.34;;;2.76;60.08
84835;BME280;75078;42.636;23.198;2024-03-22T01:00:13;92123.13;;;2.76;60.06
84835;BME280;75078;42.636;23.198;2024-03-22T01:02:39;92121.03;;;2.69;58.41
84835;BME280;75078;42.636;23.198;2024-03-22T01:05:05;92119.09;;;2.66;58.20
84835;BME280;75078;42.636;23.198;2024-03-22T01:07:30;92127.88;;;2.60;57.51
84835;BME280;75078;42.636;23.198;2024-03-22T01:09:55;92124.88;;;2.58;57.09
84835;BME280;75078;42.636;23.198;2024-03-22T01:12:21;92125.06;;;2.62;56.90
84835;BME280;75078;42.636;23.198;2024-03-22T01:14:46;92130.28;;;2.65;56.67
84835;BME280;75078;42.636;23.198;2024-03-22T01:17:12;92130.28;;;2.65;56.82
84835;BME280;75078;42.636;23.198;2024-03-22T01:19:37;92129.41;;;2.70;56.84
84835;BME280;75078;42.636;23.198;2024-03-22T01:22:02;92127.31;;;2.72;57.12
84835;BME280;75078;42.636;23.198;2024-03-22T01:24:28;92126.28;;;2.64;57.06
84835;BME280;75078;42.636;23.198;2024-03-22T01:26:53;92131.06;;;2.66;56.70
84835;BME280;75078;42.636;23.198;2024-03-22T01:29:19;92126.13;;;2.69;56.80
84835;BME280;75078;42.636;23.198;2024-03-22T01:31:44;92128.41;;;2.79;56.96
84835;BME280;75078;42.636;23.198;2024-03-22T01:34:09;92127.34;;;2.80;57.15
84835;BME280;75078;42.636;23.198;2024-03-22T01:36:35;92126.44;;;2.76;57.61
84835;BME280;75078;42.636;23.198;2024-03-22T01:39:00;92123.47;;;2.83;58.58
84835;BME280;75078;42.636;23.198;2024-03-22T01:41:25;92125.28;;;2.82;57.52
84835;BME280;75078;42.636;23.198;2024-03-22T01:43:51;92125.56;;;2.81;57.87
84835;BME280;75078;42.636;23.198;2024-03-22T01:46:16;92126.31;;;2.90;58.38
84835;BME280;75078;42.636;23.198;2024-03-22T01:48:41;92124.09;;;2.88;57.73
84835;BME280;75078;42.636;23.198;2024-03-22T01:51:08;92119.91;;;2.92;58.31
84835;BME280;75078;42.636;23.198;2024-03-22T01:53:34;92117.97;;;2.98;57.90
84835;BME280;75078;42.636;23.198;2024-03-22T01:56:01;92126.31;;;2.99;57.48
84835;BME280;75078;42.636;23.198;2024-03-22T01:58:26;92119.00;;;2.97;56.92
84835;BME280;75078;42.636;23.198;2024-03-22T02:00:52;92123.19;;;3.02;57.06
84835;BME280;75078;42.636;23.198;2024-03-22T02:03:17;92123.78;;;2.99;57.42
84835;BME280;75078;42.636;23.198;2024-03-22T02:05:42;92117.97;;;2.98;57.70
84835;BME280;75078;42.636;23.198;2024-03-22T02:08:08;92125.28;;;3.00;56.01
84835;BME280;75078;42.636;23.198;2024-03-22T02:10:33;92128.28;;;3.02;58.45
84835;BME280;75078;42.636;23.198;2024-03-22T02:12:58;92118.69;;;2.99;59.66
84835;BME280;75078;42.636;23.198;2024-03-22T02:15:24;92116.91;;;2.90;58.83
84835;BME280;75078;42.636;23.198;2024-03-22T02:17:49;92115.06;;;2.74;58.25
84835;BME280;75078;42.636;23.198;2024-03-22T02:20:15;92117.47;;;2.70;58.17
84835;BME280;75078;42.636;23.198;2024-03-22T02:22:40;92116.56;;;2.66;58.70
84835;BME280;75078;42.636;23.198;2024-03-22T02:25:06;92123.31;;;2.71;59.42
84835;BME280;75078;42.636;23.198;2024-03-22T02:27:33;92119.25;;;2.70;59.01
84835;BME280;75078;42.636;23.198;2024-03-22T02:29:58;92128.66;;;2.69;57.71
84835;BME280;75078;42.636;23.198;2024-03-22T02:32:23;92129.72;;;2.68;57.97
84835;BME280;75078;42.636;23.198;2024-03-22T02:34:49;92129.69;;;2.60;58.20
84835;BME280;75078;42.636;23.198;2024-03-22T02:37:14;92132.94;;;2.52;57.99
84835;BME280;75078;42.636;23.198;2024-03-22T02:39:39;92134.28;;;2.49;58.79
84835;BME280;75078;42.636;23.198;2024-03-22T02:42:05;92135.91;;;2.45;59.23
84835;BME280;75078;42.636;23.198;2024-03-22T02:44:30;92130.50;;;2.38;59.20
84835;BME280;75078;42.636;23.198;2024-03-22T02:46:56;92133.63;;;2.35;60.17
84835;BME280;75078;42.636;23.198;2024-03-22T02:49:21;92135.25;;;2.31;60.91
84835;BME280;75078;42.636;23.198;2024-03-22T02:51:46;92142.41;;;2.29;59.55
84835;BME280;75078;42.636;23.198;2024-03-22T02:54:12;92140.94;;;2.28;61.38
84835;BME280;75078;42.636;23.198;2024-03-22T02:56:37;92140.47;;;2.26;60.47
84835;BME280;75078;42.636;23.198;2024-03-22T02:59:02;92153.28;;;2.21;59.42
84835;BME280;75078;42.636;23.198;2024-03-22T03:01:28;92143.25;;;2.16;60.10
84835;BME280;75078;42.636;23.198;2024-03-22T03:03:53;92151.00;;;2.11;60.41
84835;BME280;75078;42.636;23.198;2024-03-22T03:06:18;92149.19;;;2.11;61.07
84835;BME280;75078;42.636;23.198;2024-03-22T03:08:45;92150.81;;;2.07;61.05
84835;BME280;75078;42.636;23.198;2024-03-22T03:11:10;92144.53;;;2.05;60.53
84835;BME280;75078;42.636;23.198;2024-03-22T03:13:36;92154.25;;;2.03;62.18
84835;BME280;75078;42.636;23.198;2024-03-22T03:16:03;92148.97;;;1.99;61.84
84835;BME280;75078;42.636;23.198;2024-03-22T03:18:28;92147.75;;;1.97;62.17
84835;BME280;75078;42.636;23.198;2024-03-22T03:20:53;92152.38;;;1.95;61.91
84835;BME280;75078;42.636;23.198;2024-03-22T03:23:19;92153.44;;;1.94;63.11
84835;BME280;75078;42.636;23.198;2024-03-22T03:25:45;92149.13;;;1.94;63.12
84835;BME280;75078;42.636;23.198;2024-03-22T03:28:11;92147.50;;;1.98;63.21
84835;BME280;75078;42.636;23.198;2024-03-22T03:30:37;92151.25;;;2.01;62.71
84835;BME280;75078;42.636;23.198;2024-03-22T03:33:03;92154.25;;;2.03;62.80
84835;BME280;75078;42.636;23.198;2024-03-22T03:35:28;92153.38;;;2.07;62.38
84835;BME280;75078;42.636;23.198;2024-03-22T03:37:54;92152.94;;;2.14;62.94
84835;BME280;75078;42.636;23.198;2024-03-22T03:40:20;92156.41;;;2.18;63.33
84835;BME280;75078;42.636;23.198;2024-03-22T03:42:47;92149.25;;;2.20;62.81
84835;BME280;75078;42.636;23.198;2024-03-22T03:45:12;92156.75;;;2.25;62.76
84835;BME280;75078;42.636;23.198;2024-03-22T03:47:38;92156.75;;;2.25;62.63
84835;BME280;75078;42.636;23.198;2024-03-22T03:50:03;92158.03;;;2.14;61.85
84835;BME280;75078;42.636;23.198;2024-03-22T03:52:28;92157.22;;;2.05;62.46
84835;BME280;75078;42.636;23.198;2024-03-22T03:54:54;92160.13;;;2.12;62.39
84835;BME280;75078;42.636;23.198;2024-03-22T03:57:19;92168.16;;;2.05;62.19
84835;BME280;75078;42.636;23.198;2024-03-22T03:59:44;92157.22;;;2.05;62.27
84835;BME280;75078;42.636;23.198;2024-03-22T04:02:10;92163.34;;;2.04;62.67
84835;BME280;75078;42.636;23.198;2024-03-22T04:04:35;92165.53;;;1.97;63.05
84835;BME280;75078;42.636;23.198;2024-03-22T04:07:01;92170.03;;;2.00;63.47
84835;BME280;75078;42.636;23.198;2024-03-22T04:09:26;92177.97;;;1.98;62.80
84835;BME280;75078;42.636;23.198;2024-03-22T04:11:51;92170.75;;;1.92;62.71
84835;BME280;75078;42.636;23.198;2024-03-22T04:14:17;92179.16;;;1.79;63.60
84835;BME280;75078;42.636;23.198;2024-03-22T04:16:42;92178.28;;;1.61;63.38
84835;BME280;75078;42.636;23.198;2024-03-22T04:19:07;92186.34;;;1.63;63.28
84835;BME280;75078;42.636;23.198;2024-03-22T04:21:33;92176.84;;;1.47;63.51
84835;BME280;75078;42.636;23.198;2024-03-22T04:23:58;92189.38;;;1.52;62.88
84835;BME280;75078;42.636;23.198;2024-03-22T04:26:23;92185.38;;;1.51;63.22
84835;BME280;75078;42.636;23.198;2024-03-22T04:28:49;92190.44;;;1.51;62.56
84835;BME280;75078;42.636;23.198;2024-03-22T04:31:14;92184.91;;;1.49;63.27
84835;BME280;75078;42.636;23.198;2024-03-22T04:33:40;92186.75;;;1.57;63.28
84835;BME280;75078;42.636;23.198;2024-03-22T04:36:06;92195.06;;;1.49;63.18
84835;BME280;75078;42.636;23.198;2024-03-22T04:38:31;92197.25;;;1.64;63.72
84835;BME280;75078;42.636;23.198;2024-03-22T04:40:57;92190.34;;;1.78;62.94
84835;BME280;75078;42.636;23.198;2024-03-22T04:43:24;92192.78;;;1.83;62.93
84835;BME280;75078;42.636;23.198;2024-03-22T04:45:49;92194.63;;;1.91;63.06
84835;BME280;75078;42.636;23.198;2024-03-22T04:48:20;92204.56;;;2.01;62.13
84835;BME280;75078;42.636;23.198;2024-03-22T04:50:47;92204.09;;;1.99;62.70
84835;BME280;75078;42.636;23.198;2024-03-22T04:53:15;92196.94;;;2.01;63.05
84835;BME280;75078;42.636;23.198;2024-03-22T04:55:40;92197.75;;;2.10;63.31
84835;BME280;75078;42.636;23.198;2024-03-22T04:58:17;92200.44;;;2.13;62.38
84835;BME280;75078;42.636;23.198;2024-03-22T05:00:43;92200.69;;;2.03;62.66
84835;BME280;75078;42.636;23.198;2024-03-22T05:03:09;92203.16;;;1.95;63.81
84835;BME280;75078;42.636;23.198;2024-03-22T05:05:34;92202.47;;;2.03;63.01
84835;BME280;75078;42.636;23.198;2024-03-22T05:08:00;92208.47;;;2.07;62.81
84835;BME280;75078;42.636;23.198;2024-03-22T05:10:26;92203.34;;;1.98;62.86
84835;BME280;75078;42.636;23.198;2024-03-22T05:12:52;92200.97;;;2.02;62.19
84835;BME280;75078;42.636;23.198;2024-03-22T05:15:17;92202.53;;;2.11;62.55
84835;BME280;75078;42.636;23.198;2024-03-22T05:17:42;92205.72;;;2.17;62.81
84835;BME280;75078;42.636;23.198;2024-03-22T05:20:08;92212.28;;;2.18;61.87
84835;BME280;75078;42.636;23.198;2024-03-22T05:22:37;92218.25;;;2.22;61.37
84835;BME280;75078;42.636;23.198;2024-03-22T05:25:02;92221.44;;;2.28;61.08
84835;BME280;75078;42.636;23.198;2024-03-22T05:27:28;92215.03;;;2.30;61.08
84835;BME280;75078;42.636;23.198;2024-03-22T05:29:54;92223.69;;;2.29;61.13
84835;BME280;75078;42.636;23.198;2024-03-22T05:32:19;92218.78;;;2.33;59.89
84835;BME280;75078;42.636;23.198;2024-03-22T05:34:44;92217.09;;;2.50;59.88
84835;BME280;75078;42.636;23.198;2024-03-22T05:37:10;92218.28;;;2.53;59.49
84835;BME280;75078;42.636;23.198;2024-03-22T05:39:36;92222.50;;;2.57;59.04
84835;BME280;75078;42.636;23.198;2024-03-22T05:42:01;92224.03;;;2.67;58.08
84835;BME280;75078;42.636;23.198;2024-03-22T05:44:26;92225.69;;;2.71;58.14
84835;BME280;75078;42.636;23.198;2024-03-22T05:46:52;92226.19;;;2.82;57.89
84835;BME280;75078;42.636;23.198;2024-03-22T05:49:17;92232.81;;;2.92;57.08
84835;BME280;75078;42.636;23.198;2024-03-22T05:51:43;92230.00;;;3.02;56.34
84835;BME280;75078;42.636;23.198;2024-03-22T05:54:08;92238.25;;;3.07;56.67
84835;BME280;75078;42.636;23.198;2024-03-22T05:56:34;92235.09;;;3.10;55.73
84835;BME280;75078;42.636;23.198;2024-03-22T05:58:59;92236.19;;;3.18;56.43
84835;BME280;75078;42.636;23.198;2024-03-22T06:01:25;92240.09;;;3.24;56.02
84835;BME280;75078;42.636;23.198;2024-03-22T06:03:50;92240.56;;;3.34;56.36
84835;BME280;75078;42.636;23.198;2024-03-22T06:06:15;92233.41;;;3.45;55.69
84835;BME280;75078;42.636;23.198;2024-03-22T06:08:41;92244.78;;;3.39;55.31
84835;BME280;75078;42.636;23.198;2024-03-22T06:11:09;92241.78;;;3.45;57.42
84835;BME280;75078;42.636;23.198;2024-03-22T06:13:34;92239.84;;;3.51;56.83
84835;BME280;75078;42.636;23.198;2024-03-22T06:16:01;92239.25;;;3.54;55.30
84835;BME280;75078;42.636;23.198;2024-03-22T06:18:26;92240.63;;;3.69;55.64
84835;BME280;75078;42.636;23.198;2024-03-22T06:20:52;92240.34;;;3.70;54.95
84835;BME280;75078;42.636;23.198;2024-03-22T06:23:20;92239.28;;;3.80;55.10
84835;BME280;75078;42.636;23.198;2024-03-22T06:25:52;92241.84;;;3.88;55.71
84835;BME280;75078;42.636;23.198;2024-03-22T06:28:17;92239.44;;;4.00;55.80
84835;BME280;75078;42.636;23.198;2024-03-22T06:30:43;92242.88;;;4.04;55.59
84835;BME280;75078;42.636;23.198;2024-03-22T06:33:08;92240.94;;;4.01;55.00
84835;BME280;75078;42.636;23.198;2024-03-22T06:35:33;92232.97;;;4.03;54.68
84835;BME280;75078;42.636;23.198;2024-03-22T06:37:59;92234.78;;;4.11;54.70
84835;BME280;75078;42.636;23.198;2024-03-22T06:40:27;92241.09;;;4.13;53.52
84835;BME280;75078;42.636;23.198;2024-03-22T06:42:53;92240.31;;;4.21;54.71
84835;BME280;75078;42.636;23.198;2024-03-22T06:45:18;92244.06;;;4.24;53.68
84835;BME280;75078;42.636;23.198;2024-03-22T06:47:43;92244.19;;;4.27;54.14
84835;BME280;75078;42.636;23.198;2024-03-22T06:50:10;92249.31;;;4.36;54.05
84835;BME280;75078;42.636;23.198;2024-03-22T06:52:36;92254.69;;;4.43;53.10
84835;BME280;75078;42.636;23.198;2024-03-22T06:55:01;92257.38;;;4.47;53.30
84835;BME280;75078;42.636;23.198;2024-03-22T06:57:28;92257.06;;;4.57;54.49
84835;BME280;75078;42.636;23.198;2024-03-22T06:59:53;92259.91;;;4.72;54.30
84835;BME280;75078;42.636;23.198;2024-03-22T07:02:18;92258.06;;;4.81;53.20
84835;BME280;75078;42.636;23.198;2024-03-22T07:04:44;92250.38;;;4.90;52.52
84835;BME280;75078;42.636;23.198;2024-03-22T07:07:09;92261.47;;;4.94;54.10
84835;BME280;75078;42.636;23.198;2024-03-22T07:09:35;92260.94;;;5.09;53.36
84835;BME280;75078;42.636;23.198;2024-03-22T07:12:01;92262.31;;;5.15;53.29
84835;BME280;75078;42.636;23.198;2024-03-22T07:14:26;92270.03;;;5.27;53.61
84835;BME280;75078;42.636;23.198;2024-03-22T07:16:52;92261.72;;;5.39;52.80
84835;BME280;75078;42.636;23.198;2024-03-22T07:19:22;92265.00;;;5.48;52.11
84835;BME280;75078;42.636;23.198;2024-03-22T07:21:47;92272.69;;;5.68;53.29
84835;BME280;75078;42.636;23.198;2024-03-22T07:24:13;92264.97;;;5.86;51.47
84835;BME280;75078;42.636;23.198;2024-03-22T07:26:38;92268.66;;;5.97;51.57
84835;BME280;75078;42.636;23.198;2024-03-22T07:29:04;92266.09;;;6.17;50.78
84835;BME280;75078;42.636;23.198;2024-03-22T07:31:29;92263.94;;;6.40;51.31
84835;BME280;75078;42.636;23.198;2024-03-22T07:33:54;92266.25;;;6.66;50.21
84835;BME280;75078;42.636;23.198;2024-03-22T07:36:21;92264.94;;;6.92;49.22
84835;BME280;75078;42.636;23.198;2024-03-22T07:38:46;92269.66;;;7.02;50.23
84835;BME280;75078;42.636;23.198;2024-03-22T07:41:11;92268.81;;;7.22;48.48
84835;BME280;75078;42.636;23.198;2024-03-22T07:43:37;92265.53;;;7.34;49.39
84835;BME280;75078;42.636;23.198;2024-03-22T07:46:02;92267.78;;;7.60;47.37
84835;BME280;75078;42.636;23.198;2024-03-22T07:48:28;92271.59;;;7.78;47.33
84835;BME280;75078;42.636;23.198;2024-03-22T07:51:00;92273.94;;;7.95;46.96
84835;BME280;75078;42.636;23.198;2024-03-22T07:53:26;92276.34;;;8.04;46.42
84835;BME280;75078;42.636;23.198;2024-03-22T07:55:51;92271.31;;;8.31;45.70
84835;BME280;75078;42.636;23.198;2024-03-22T07:58:16;92277.88;;;8.44;45.67
84835;BME280;75078;42.636;23.198;2024-03-22T08:00:42;92274.94;;;8.58;44.40
84835;BME280;75078;42.636;23.198;2024-03-22T08:03:08;92276.63;;;8.66;46.36
84835;BME280;75078;42.636;23.198;2024-03-22T08:05:38;92278.94;;;8.71;44.32
84835;BME280;75078;42.636;23.198;2024-03-22T08:08:04;92277.25;;;8.91;44.50
84835;BME280;75078;42.636;23.198;2024-03-22T08:10:29;92283.06;;;9.03;43.35
84835;BME280;75078;42.636;23.198;2024-03-22T08:12:55;92277.78;;;9.12;44.34
84835;BME280;75078;42.636;23.198;2024-03-22T08:15:21;92276.41;;;8.87;42.89
84835;BME280;75078;42.636;23.198;2024-03-22T08:17:46;92275.19;;;9.12;43.16
84835;BME280;75078;42.636;23.198;2024-03-22T08:20:11;92270.41;;;9.26;43.66
84835;BME280;75078;42.636;23.198;2024-03-22T08:22:37;92278.03;;;9.54;45.39
84835;BME280;75078;42.636;23.198;2024-03-22T08:25:02;92269.50;;;9.50;42.78
84835;BME280;75078;42.636;23.198;2024-03-22T08:27:29;92266.50;;;9.63;42.80
84835;BME280;75078;42.636;23.198;2024-03-22T08:29:54;92273.44;;;9.78;41.95
84835;BME280;75078;42.636;23.198;2024-03-22T08:32:19;92275.09;;;9.86;42.20
84835;BME280;75078;42.636;23.198;2024-03-22T08:34:45;92274.47;;;9.93;41.69
84835;BME280;75078;42.636;23.198;2024-03-22T08:37:11;92268.34;;;10.13;42.29
84835;BME280;75078;42.636;23.198;2024-03-22T08:39:36;92280.69;;;10.07;39.12
84835;BME280;75078;42.636;23.198;2024-03-22T08:42:02;92271.25;;;9.96;39.31
84835;BME280;75078;42.636;23.198;2024-03-22T08:44:30;92276.53;;;10.19;40.95
84835;BME280;75078;42.636;23.198;2024-03-22T08:46:55;92275.53;;;10.42;40.95
84835;BME280;75078;42.636;23.198;2024-03-22T08:49:20;92280.75;;;10.65;40.10
84835;BME280;75078;42.636;23.198;2024-03-22T08:51:46;92276.16;;;10.74;39.64
84835;BME280;75078;42.636;23.198;2024-03-22T08:54:13;92272.47;;;10.94;40.62
84835;BME280;75078;42.636;23.198;2024-03-22T08:56:38;92274.72;;;11.18;38.28
84835;BME280;75078;42.636;23.198;2024-03-22T08:59:04;92270.47;;;11.29;38.73
84835;BME280;75078;42.636;23.198;2024-03-22T09:01:29;92270.25;;;10.73;38.36
84835;BME280;75078;42.636;23.198;2024-03-22T09:03:54;92280.47;;;10.70;38.38
84835;BME280;75078;42.636;23.198;2024-03-22T09:06:20;92279.78;;;10.73;37.42
84835;BME280;75078;42.636;23.198;2024-03-22T09:08:45;92274.09;;;10.83;38.52
84835;BME280;75078;42.636;23.198;2024-03-22T09:11:11;92269.06;;;10.90;38.43
84835;BME280;75078;42.636;23.198;2024-03-22T09:13:36;92268.28;;;11.09;37.25
84835;BME280;75078;42.636;23.198;2024-03-22T09:16:02;92264.56;;;11.29;38.33
84835;BME280;75078;42.636;23.198;2024-03-22T09:18:27;92255.81;;;11.33;38.64
84835;BME280;75078;42.636;23.198;2024-03-22T09:20:53;92264.53;;;11.25;36.56
84835;BME280;75078;42.636;23.198;2024-03-22T09:23:19;92261.81;;;11.18;37.45
84835;BME280;75078;42.636;23.198;2024-03-22T09:25:47;92257.31;;;11.34;36.92
84835;BME280;75078;42.636;23.198;2024-03-22T09:28:13;92254.94;;;11.48;36.76
84835;BME280;75078;42.636;23.198;2024-03-22T09:30:41;92253.81;;;11.69;36.77
84835;BME280;75078;42.636;23.198;2024-03-22T09:33:08;92246.97;;;11.80;36.96
84835;BME280;75078;42.636;23.198;2024-03-22T09:35:34;92248.13;;;12.12;35.94
84835;BME280;75078;42.636;23.198;2024-03-22T09:37:59;92243.28;;;12.37;35.30
84835;BME280;75078;42.636;23.198;2024-03-22T09:40:25;92245.31;;;12.24;33.96
84835;BME280;75078;42.636;23.198;2024-03-22T09:42:52;92257.06;;;12.18;35.18
84835;BME280;75078;42.636;23.198;2024-03-22T09:45:18;92260.69;;;12.43;34.01
84835;BME280;75078;42.636;23.198;2024-03-22T09:47:45;92252.22;;;12.46;34.69
84835;BME280;75078;42.636;23.198;2024-03-22T09:50:12;92256.41;;;12.58;34.39
84835;BME280;75078;42.636;23.198;2024-03-22T09:52:38;92240.91;;;12.54;32.04
84835;BME280;75078;42.636;23.198;2024-03-22T09:55:05;92242.44;;;12.62;33.48
84835;BME280;75078;42.636;23.198;2024-03-22T09:57:31;92240.13;;;12.50;34.03
84835;BME280;75078;42.636;23.198;2024-03-22T09:59:57;92247.13;;;12.53;35.34
84835;BME280;75078;42.636;23.198;2024-03-22T10:02:23;92243.16;;;12.59;34.37
84835;BME280;75078;42.636;23.198;2024-03-22T10:04:50;92238.59;;;12.82;32.56
84835;BME280;75078;42.636;23.198;2024-03-22T10:07:16;92240.25;;;12.98;33.52
84835;BME280;75078;42.636;23.198;2024-03-22T10:09:41;92229.75;;;12.83;34.31
84835;BME280;75078;42.636;23.198;2024-03-22T10:12:08;92248.22;;;12.85;33.74
84835;BME280;75078;42.636;23.198;2024-03-22T10:14:34;92242.38;;;12.88;33.40
84835;BME280;75078;42.636;23.198;2024-03-22T10:17:02;92233.97;;;12.98;34.60
84835;BME280;75078;42.636;23.198;2024-03-22T10:19:27;92235.09;;;13.01;33.03
84835;BME280;75078;42.636;23.198;2024-03-22T10:22:02;92239.81;;;13.29;33.51
84835;BME280;75078;42.636;23.198;2024-03-22T10:24:29;92227.94;;;13.24;33.22
84835;BME280;75078;42.636;23.198;2024-03-22T10:26:55;92230.28;;;13.40;32.96
84835;BME280;75078;42.636;23.198;2024-03-22T10:29:21;92223.56;;;13.83;32.42
84835;BME280;75078;42.636;23.198;2024-03-22T10:31:47;92220.06;;;13.54;32.53
84835;BME280;75078;42.636;23.198;2024-03-22T10:34:14;92214.41;;;13.96;32.17
84835;BME280;75078;42.636;23.198;2024-03-22T10:36:41;92217.13;;;14.27;32.78
84835;BME280;75078;42.636;23.198;2024-03-22T10:39:07;92208.25;;;14.21;29.92
84835;BME280;75078;42.636;23.198;2024-03-22T10:41:33;92220.47;;;14.24;30.46
84835;BME280;75078;42.636;23.198;2024-03-22T10:43:58;92205.63;;;14.11;29.42
84835;BME280;75078;42.636;23.198;2024-03-22T10:46:29;92203.97;;;14.57;31.10
84835;BME280;75078;42.636;23.198;2024-03-22T10:48:55;92202.00;;;14.29;31.89
84835;BME280;75078;42.636;23.198;2024-03-22T10:51:21;92199.53;;;14.58;31.14
84835;BME280;75078;42.636;23.198;2024-03-22T10:53:48;92200.97;;;14.45;30.88
84835;BME280;75078;42.636;23.198;2024-03-22T10:56:16;92197.00;;;14.82;30.40
84835;BME280;75078;42.636;23.198;2024-03-22T10:58:42;92204.47;;;15.33;30.40
84835;BME280;75078;42.636;23.198;2024-03-22T11:01:26;92205.19;;;15.23;30.56
84835;BME280;75078;42.636;23.198;2024-03-22T11:04:08;92194.81;;;15.27;29.84
84835;BME280;75078;42.636;23.198;2024-03-22T11:06:36;92190.00;;;15.43;29.59
84835;BME280;75078;42.636;23.198;2024-03-22T11:09:02;92186.69;;;15.56;29.64
84835;BME280;75078;42.636;23.198;2024-03-22T11:11:30;92195.53;;;15.98;30.42
84835;BME280;75078;42.636;23.198;2024-03-22T11:14:03;92191.78;;;16.06;28.77
84835;BME280;75078;42.636;23.198;2024-03-22T11:16:28;92183.63;;;15.97;27.15
84835;BME280;75078;42.636;23.198;2024-03-22T11:18:54;92178.00;;;16.23;28.95
84835;BME280;75078;42.636;23.198;2024-03-22T11:21:20;92177.56;;;16.45;27.13
84835;BME280;75078;42.636;23.198;2024-03-22T11:23:46;92182.78;;;16.38;26.73
84835;BME280;75078;42.636;23.198;2024-03-22T11:26:11;92180.69;;;15.95;26.82
84835;BME280;75078;42.636;23.198;2024-03-22T11:28:38;92179.19;;;15.97;27.51
84835;BME280;75078;42.636;23.198;2024-03-22T11:31:03;92182.19;;;15.89;28.08
84835;BME280;75078;42.636;23.198;2024-03-22T11:33:30;92168.13;;;15.40;28.44
84835;BME280;75078;42.636;23.198;2024-03-22T11:35:58;92174.47;;;15.46;30.37
84835;BME280;75078;42.636;23.198;2024-03-22T11:38:24;92178.13;;;15.77;26.60
84835;BME280;75078;42.636;23.198;2024-03-22T11:40:52;92176.31;;;15.42;25.85
84835;BME280;75078;42.636;23.198;2024-03-22T11:43:18;92167.03;;;15.02;26.29
84835;BME280;75078;42.636;23.198;2024-03-22T11:45:44;92172.56;;;14.76;28.70
84835;BME280;75078;42.636;23.198;2024-03-22T11:48:09;92178.06;;;14.54;29.68
84835;BME280;75078;42.636;23.198;2024-03-22T11:50:37;92173.59;;;14.47;29.84
84835;BME280;75078;42.636;23.198;2024-03-22T11:53:05;92162.16;;;14.52;29.33
84835;BME280;75078;42.636;23.198;2024-03-22T11:55:30;92162.91;;;14.77;28.09
84835;BME280;75078;42.636;23.198;2024-03-22T11:57:57;92157.03;;;15.01;28.28
84835;BME280;75078;42.636;23.198;2024-03-22T12:00:23;92151.09;;;15.32;30.77
84835;BME280;75078;42.636;23.198;2024-03-22T12:02:50;92145.19;;;15.28;27.43
84835;BME280;75078;42.636;23.198;2024-03-22T12:05:17;92154.81;;;15.45;30.44
84835;BME280;75078;42.636;23.198;2024-03-22T12:07:42;92145.53;;;15.51;30.12
84835;BME280;75078;42.636;23.198;2024-03-22T12:10:08;92142.16;;;15.75;28.62
84835;BME280;75078;42.636;23.198;2024-03-22T12:12:33;92147.28;;;16.04;28.23
84835;BME280;75078;42.636;23.198;2024-03-22T12:14:58;92141.28;;;16.21;27.21
84835;BME280;75078;42.636;23.198;2024-03-22T12:17:24;92139.09;;;16.09;26.71
84835;BME280;75078;42.636;23.198;2024-03-22T12:19:49;92138.72;;;16.14;27.17
84835;BME280;75078;42.636;23.198;2024-03-22T12:22:14;92140.06;;;16.43;28.27
84835;BME280;75078;42.636;23.198;2024-03-22T12:24:39;92138.31;;;16.22;26.57
84835;BME280;75078;42.636;23.198;2024-03-22T12:27:05;92133.34;;;16.49;28.66
84835;BME280;75078;42.636;23.198;2024-03-22T12:29:33;92127.03;;;16.46;26.96
84835;BME280;75078;42.636;23.198;2024-03-22T12:32:00;92126.56;;;15.90;26.86
84835;BME280;75078;42.636;23.198;2024-03-22T12:34:31;92130.25;;;15.96;27.33
84835;BME280;75078;42.636;23.198;2024-03-22T12:36:58;92130.56;;;16.12;27.91
84835;BME280;75078;42.636;23.198;2024-03-22T12:39:24;92125.81;;;15.96;28.52
84835;BME280;75078;42.636;23.198;2024-03-22T12:41:49;92122.78;;;16.05;28.01
84835;BME280;75078;42.636;23.198;2024-03-22T12:44:15;92115.31;;;16.21;26.62
84835;BME280;75078;42.636;23.198;2024-03-22T12:46:40;92121.97;;;16.22;26.07
84835;BME280;75078;42.636;23.198;2024-03-22T12:49:09;92120.59;;;16.03;25.89
84835;BME280;75078;42.636;23.198;2024-03-22T12:51:35;92121.41;;;15.83;26.53